createdAt,value
2022-10-12T00:01:10.387Z,63.80
2022-10-12T00:03:37.979Z,64.60
2022-10-12T00:06:06.954Z,63.90
2022-10-12T00:08:34.454Z,63.90
2022-10-12T00:11:01.914Z,63.90
2022-10-12T00:13:29.551Z,64.00
2022-10-12T00:15:57.130Z,64.10
2022-10-12T00:18:26.122Z,64.00
2022-10-12T00:21:01.835Z,64.00
2022-10-12T00:23:29.924Z,64.00
2022-10-12T00:25:57.349Z,64.10
2022-10-12T00:28:24.944Z,64.10
2022-10-12T00:30:52.573Z,64.10
2022-10-12T00:33:20.030Z,64.10
2022-10-12T00:35:49.134Z,64.10
2022-10-12T00:38:16.666Z,64.10
2022-10-12T00:40:44.224Z,64.10
2022-10-12T00:43:26.845Z,64.20
2022-10-12T00:45:54.386Z,64.10
2022-10-12T00:48:21.921Z,64.20
2022-10-12T00:50:50.992Z,64.30
2022-10-12T00:53:19.814Z,64.40
2022-10-12T00:55:50.562Z,64.50
2022-10-12T00:58:18.096Z,64.70
2022-10-12T01:00:45.642Z,64.80
2022-10-12T01:03:15.431Z,64.90
2022-10-12T01:05:43.031Z,65.00
2022-10-12T01:08:11.844Z,65.10
2022-10-12T01:10:39.383Z,65.30
2022-10-12T01:13:06.940Z,65.40
2022-10-12T01:15:36.780Z,65.40
2022-10-12T01:18:06.602Z,65.50
2022-10-12T01:20:51.378Z,65.60
2022-10-12T01:23:53.949Z,65.60
2022-10-12T01:26:43.295Z,65.80
2022-10-12T01:29:19.758Z,66.00
2022-10-12T01:31:50.278Z,65.90
2022-10-12T01:34:20.968Z,65.90
2022-10-12T01:36:50.411Z,66.00
2022-10-12T01:39:21.122Z,66.00
2022-10-12T01:41:50.045Z,66.00
2022-10-12T01:44:21.118Z,66.00
2022-10-12T01:46:50.410Z,66.00
2022-10-12T01:49:19.126Z,66.10
2022-10-12T01:52:10.493Z,66.10
2022-10-12T01:55:03.854Z,66.20
2022-10-12T01:57:35.812Z,66.30
2022-10-12T02:00:06.074Z,66.40
2022-10-12T02:02:41.678Z,66.40
2022-10-12T02:05:11.960Z,67.30
2022-10-12T02:07:41.916Z,66.50
2022-10-12T02:10:11.256Z,66.60
2022-10-12T02:12:38.725Z,66.70
2022-10-12T02:15:06.854Z,66.80
2022-10-12T02:17:36.250Z,66.90
2022-10-12T02:20:04.661Z,67.00
2022-10-12T02:22:33.676Z,67.10
2022-10-12T02:25:02.128Z,67.20
2022-10-12T02:27:29.699Z,67.30
2022-10-12T02:29:57.213Z,67.30
2022-10-12T02:32:27.917Z,67.40
2022-10-12T02:34:58.723Z,67.50
2022-10-12T02:37:32.361Z,67.50
2022-10-12T02:40:04.816Z,67.60
2022-10-12T02:42:46.551Z,67.70
2022-10-12T02:45:21.325Z,67.80
2022-10-12T02:47:48.838Z,67.90
2022-10-12T02:50:17.938Z,67.80
2022-10-12T02:52:45.549Z,67.90
2022-10-12T02:55:13.186Z,68.00
2022-10-12T02:57:40.798Z,68.00
2022-10-12T03:00:09.481Z,68.10
2022-10-12T03:02:37.010Z,68.10
2022-10-12T03:05:05.167Z,68.30
2022-10-12T03:07:34.108Z,68.30
2022-10-12T03:10:01.686Z,68.40
2022-10-12T03:12:29.184Z,68.40
2022-10-12T03:14:56.676Z,68.50
2022-10-12T03:17:24.212Z,68.50
2022-10-12T03:19:51.758Z,69.40
2022-10-12T03:22:19.355Z,68.60
2022-10-12T03:24:48.352Z,68.60
2022-10-12T03:27:15.908Z,68.70
2022-10-12T03:29:43.419Z,68.70
2022-10-12T03:32:10.947Z,68.80
2022-10-12T03:34:38.482Z,68.90
2022-10-12T03:37:06.038Z,69.00
2022-10-12T03:39:33.581Z,69.10
2022-10-12T03:42:02.520Z,69.10
2022-10-12T03:44:30.023Z,69.40
2022-10-12T03:46:57.714Z,69.50
2022-10-12T03:49:25.273Z,69.60
2022-10-12T03:51:52.809Z,69.70
2022-10-12T03:54:20.347Z,69.80
2022-10-12T03:56:47.919Z,69.90
2022-10-12T03:59:16.968Z,70.10
2022-10-12T04:01:44.524Z,70.20
2022-10-12T04:04:12.305Z,70.30
2022-10-12T04:06:39.818Z,70.50
2022-10-12T04:09:07.416Z,70.50
2022-10-12T04:11:34.927Z,70.60
2022-10-12T04:14:02.496Z,70.70
2022-10-12T04:16:31.609Z,70.80
2022-10-12T04:18:59.165Z,70.70
2022-10-12T04:21:26.706Z,70.80
2022-10-12T04:23:54.216Z,70.90
2022-10-12T04:26:21.733Z,71.10
2022-10-12T04:28:49.356Z,71.00
2022-10-12T04:31:16.994Z,71.10
2022-10-12T04:33:45.951Z,71.20
2022-10-12T04:36:13.470Z,71.20
2022-10-12T04:38:40.974Z,71.30
2022-10-12T04:41:08.531Z,71.30
2022-10-12T04:43:36.093Z,71.40
2022-10-12T04:46:03.681Z,71.40
2022-10-12T04:48:31.266Z,72.30
2022-10-12T04:51:00.302Z,71.40
2022-10-12T04:53:27.822Z,71.50
2022-10-12T04:55:55.278Z,71.60
2022-10-12T04:58:22.767Z,71.70
2022-10-12T05:00:50.375Z,71.70
2022-10-12T05:03:17.851Z,71.70
2022-10-12T05:05:45.552Z,71.70
2022-10-12T05:08:14.496Z,71.80
2022-10-12T05:10:41.953Z,71.80
2022-10-12T05:13:09.567Z,71.80
2022-10-12T05:15:37.172Z,71.80
2022-10-12T05:18:04.929Z,71.90
2022-10-12T05:20:32.521Z,72.00
2022-10-12T05:23:00.150Z,72.10
2022-10-12T05:25:29.142Z,72.10
2022-10-12T05:27:56.673Z,72.10
2022-10-12T05:30:24.297Z,72.20
2022-10-12T05:32:52.090Z,72.20
2022-10-12T05:35:19.662Z,72.30
2022-10-12T05:37:47.264Z,72.30
2022-10-12T05:40:14.935Z,72.40
2022-10-12T05:42:43.954Z,72.30
2022-10-12T05:45:11.597Z,72.20
2022-10-12T05:47:40.091Z,72.20
2022-10-12T05:50:09.054Z,72.30
2022-10-12T05:52:36.863Z,72.40
2022-10-12T05:55:05.317Z,72.30
2022-10-12T05:57:32.832Z,72.40
2022-10-12T06:00:01.932Z,72.30
2022-10-12T06:02:29.467Z,72.40
2022-10-12T06:04:56.979Z,72.50
2022-10-12T06:07:24.444Z,72.50
2022-10-12T06:09:52.069Z,72.60
2022-10-12T06:12:19.621Z,72.50
2022-10-12T06:14:47.163Z,72.60
2022-10-12T06:17:16.181Z,72.50
2022-10-12T06:19:43.738Z,72.70
2022-10-12T06:22:11.245Z,72.80
2022-10-12T06:24:38.732Z,72.90
2022-10-12T06:27:06.942Z,72.90
2022-10-12T06:29:34.571Z,72.90
2022-10-12T06:32:02.178Z,72.90
2022-10-12T06:34:31.243Z,73.00
2022-10-12T06:37:01.809Z,73.10
2022-10-12T06:39:29.706Z,73.10
2022-10-12T06:41:57.163Z,73.10
2022-10-12T06:44:24.849Z,73.00
2022-10-12T06:46:52.421Z,73.10
2022-10-12T06:49:20.028Z,73.10
2022-10-12T06:51:49.081Z,73.10
2022-10-12T06:54:16.622Z,73.10
2022-10-12T06:56:44.160Z,73.00
2022-10-12T06:59:12.479Z,73.00
2022-10-12T07:01:40.090Z,73.10
2022-10-12T07:04:07.709Z,73.10
2022-10-12T07:06:35.192Z,73.00
2022-10-12T07:09:04.316Z,73.00
2022-10-12T07:11:31.830Z,73.10
2022-10-12T07:13:59.407Z,73.10
2022-10-12T07:16:26.968Z,73.10
2022-10-12T07:18:54.490Z,73.10
2022-10-12T07:21:22.027Z,73.10
2022-10-12T07:23:49.483Z,72.90
2022-10-12T07:26:18.435Z,72.90
2022-10-12T07:28:46.112Z,72.80
2022-10-12T07:31:13.827Z,72.70
2022-10-12T07:33:41.501Z,72.60
2022-10-12T07:36:21.243Z,72.40
2022-10-12T07:38:49.711Z,72.40
2022-10-12T07:41:18.755Z,72.40
2022-10-12T07:43:46.368Z,72.30
2022-10-12T07:46:13.912Z,72.20
2022-10-12T07:48:44.563Z,72.10
2022-10-12T07:51:16.685Z,72.10
2022-10-12T07:53:44.255Z,72.10
2022-10-12T07:56:12.005Z,72.00
2022-10-12T07:58:41.021Z,72.00
2022-10-12T08:01:09.192Z,72.10
2022-10-12T08:03:36.800Z,72.20
2022-10-12T08:06:09.592Z,72.10
2022-10-12T08:08:37.195Z,72.20
2022-10-12T08:11:04.940Z,72.10
2022-10-12T08:13:32.642Z,72.10
2022-10-12T08:16:03.403Z,72.10
2022-10-12T08:18:30.946Z,72.20
2022-10-12T08:20:58.673Z,72.10
2022-10-12T08:23:26.198Z,72.00
2022-10-12T08:25:53.706Z,72.00
2022-10-12T08:28:21.299Z,71.90
2022-10-12T08:30:48.890Z,71.90
2022-10-12T08:33:18.000Z,71.70
2022-10-12T08:35:45.736Z,71.70
2022-10-12T08:38:13.527Z,71.80
2022-10-12T08:40:46.803Z,71.80
2022-10-12T08:43:17.108Z,71.80
2022-10-12T08:45:47.658Z,71.70
2022-10-12T08:48:18.407Z,71.70
2022-10-12T08:50:48.667Z,71.60
2022-10-12T08:53:19.566Z,72.40
2022-10-12T08:55:47.180Z,71.60
2022-10-12T08:58:16.987Z,71.60
2022-10-12T09:00:46.831Z,71.60
2022-10-12T09:03:19.199Z,71.70
2022-10-12T09:05:49.274Z,71.80
2022-10-12T09:08:24.221Z,71.90
2022-10-12T09:10:55.934Z,72.00
2022-10-12T09:13:32.971Z,72.20
2022-10-12T09:16:02.835Z,72.20
2022-10-12T09:18:40.602Z,72.10
2022-10-12T09:21:10.848Z,72.10
2022-10-12T09:23:39.506Z,72.00
2022-10-12T09:26:13.767Z,71.90
2022-10-12T09:28:42.420Z,72.70
2022-10-12T09:31:18.564Z,71.90
2022-10-12T09:33:50.541Z,71.80
2022-10-12T09:36:20.398Z,71.80
2022-10-12T09:38:48.027Z,71.60
2022-10-12T09:41:19.311Z,71.60
2022-10-12T09:43:46.873Z,71.30
2022-10-12T09:46:14.663Z,71.20
2022-10-12T09:48:57.932Z,71.50
2022-10-12T09:51:25.505Z,71.60
2022-10-12T09:53:57.366Z,71.70
2022-10-12T09:56:27.590Z,71.70
2022-10-12T09:58:58.957Z,71.50
2022-10-12T10:01:26.968Z,71.20
2022-10-12T10:04:14.054Z,71.10
2022-10-12T10:06:42.927Z,71.00
2022-10-12T10:09:27.555Z,71.30
2022-10-12T10:11:55.239Z,71.10
2022-10-12T10:14:22.784Z,71.20
2022-10-12T10:16:50.878Z,71.20
2022-10-12T10:19:21.736Z,71.10
2022-10-12T10:21:49.278Z,71.00
2022-10-12T10:24:25.311Z,71.00
2022-10-12T10:26:53.978Z,70.90
2022-10-12T10:29:39.184Z,70.90
2022-10-12T10:32:16.912Z,70.80
2022-10-12T10:34:45.950Z,70.90
2022-10-12T10:37:15.001Z,70.90
2022-10-12T10:39:46.474Z,70.80
2022-10-12T10:42:19.486Z,70.70
2022-10-12T10:44:49.583Z,70.70
2022-10-12T10:47:17.085Z,70.80
2022-10-12T10:49:49.458Z,70.70
2022-10-12T10:52:22.827Z,70.60
2022-10-12T10:54:50.557Z,70.60
2022-10-12T10:57:19.697Z,70.80
2022-10-12T10:59:49.702Z,70.90
2022-10-12T11:02:25.438Z,71.10
2022-10-12T11:04:58.583Z,71.00
2022-10-12T11:07:30.609Z,70.90
2022-10-12T11:09:59.809Z,70.90
2022-10-12T11:12:31.340Z,70.80
2022-10-12T11:15:04.695Z,70.70
2022-10-12T11:17:33.322Z,70.70
2022-10-12T11:20:14.602Z,70.70
2022-10-12T11:22:47.235Z,70.60
2022-10-12T11:25:21.262Z,70.70
2022-10-12T11:27:53.458Z,70.70
2022-10-12T11:30:23.079Z,70.70
2022-10-12T11:32:51.759Z,70.80
2022-10-12T11:35:25.960Z,70.80
2022-10-12T11:37:56.074Z,70.80
2022-10-12T11:40:47.780Z,70.80
2022-10-12T11:43:16.114Z,70.70
2022-10-12T11:45:45.280Z,70.70
2022-10-12T11:48:14.727Z,70.80
2022-10-12T11:50:44.665Z,70.60
2022-10-12T11:53:16.761Z,70.60
2022-10-12T11:56:01.460Z,70.50
2022-10-12T11:58:48.708Z,70.50
2022-10-12T12:01:33.784Z,70.50
2022-10-12T12:04:41.688Z,70.50
2022-10-12T12:07:48.731Z,70.40
2022-10-12T12:11:03.795Z,70.40
2022-10-12T12:13:31.377Z,70.40
2022-10-12T12:16:32.677Z,70.60
2022-10-12T12:19:33.929Z,70.30
2022-10-12T12:22:17.902Z,70.40
2022-10-12T12:25:01.391Z,70.40
2022-10-12T12:27:32.284Z,70.40
2022-10-12T12:30:00.100Z,70.50
2022-10-12T12:32:28.098Z,70.40
2022-10-12T12:35:00.729Z,70.30
2022-10-12T12:37:30.886Z,70.20
2022-10-12T12:40:00.482Z,70.30
2022-10-12T12:42:28.588Z,70.40
2022-10-12T12:44:56.197Z,70.30
2022-10-12T12:47:46.596Z,70.20
2022-10-12T12:50:33.738Z,70.90
2022-10-12T12:53:05.479Z,70.00
2022-10-12T12:55:43.357Z,70.00
2022-10-12T12:58:23.846Z,69.90
2022-10-12T13:00:57.269Z,69.90
2022-10-12T13:03:49.344Z,69.80
2022-10-12T13:06:53.269Z,69.60
2022-10-12T13:09:35.930Z,69.50
2022-10-12T13:12:18.469Z,69.70
2022-10-12T13:15:02.117Z,69.60
2022-10-12T13:17:50.120Z,69.50
2022-10-12T13:20:18.613Z,69.50
2022-10-12T13:22:46.473Z,70.30
2022-10-12T13:25:15.750Z,69.30
2022-10-12T13:27:46.574Z,69.20
2022-10-12T13:30:27.446Z,69.20
2022-10-12T13:32:59.374Z,69.10
2022-10-12T13:35:32.179Z,69.10
2022-10-12T13:38:05.299Z,69.10
2022-10-12T13:40:36.147Z,69.00
2022-10-12T13:43:26.054Z,69.10
2022-10-12T13:45:53.685Z,68.90
2022-10-12T13:48:39.965Z,69.00
2022-10-12T13:51:22.883Z,68.90
2022-10-12T13:53:50.464Z,68.70
2022-10-12T13:56:19.634Z,68.70
2022-10-12T13:58:48.706Z,68.70
2022-10-12T14:01:16.439Z,68.60
2022-10-12T14:03:44.540Z,68.60
2022-10-12T14:06:25.385Z,68.60
2022-10-12T14:08:52.939Z,68.40
2022-10-12T14:11:20.552Z,68.60
2022-10-12T14:13:49.678Z,68.40
2022-10-12T14:16:17.233Z,68.50
2022-10-12T14:18:44.886Z,68.40
2022-10-12T14:21:15.479Z,68.40
2022-10-12T14:23:44.927Z,68.30
2022-10-12T14:26:24.777Z,68.30
2022-10-12T14:28:53.909Z,68.20
2022-10-12T14:31:49.564Z,68.20
2022-10-12T14:34:40.502Z,68.00
2022-10-12T14:37:22.687Z,68.00
2022-10-12T14:39:50.305Z,68.10
2022-10-12T14:42:21.482Z,68.10
2022-10-12T14:44:51.178Z,68.10
2022-10-12T14:47:21.026Z,68.10
2022-10-12T14:49:49.264Z,68.00
2022-10-12T14:52:19.724Z,68.00
2022-10-12T14:54:50.854Z,68.00
2022-10-12T14:57:18.512Z,68.00
2022-10-12T14:59:46.252Z,68.00
2022-10-12T15:02:17.257Z,67.90
2022-10-12T15:04:44.891Z,67.90
2022-10-12T15:07:15.135Z,67.90
2022-10-12T15:09:42.775Z,67.80
2022-10-12T15:12:12.437Z,67.70
2022-10-12T15:14:42.016Z,67.60
2022-10-12T15:17:11.874Z,67.60
2022-10-12T15:19:41.379Z,67.50
2022-10-12T15:22:10.373Z,67.50
2022-10-12T15:24:37.917Z,67.50
2022-10-12T15:27:05.434Z,67.50
2022-10-12T15:29:32.975Z,67.50
2022-10-12T15:32:00.513Z,67.40
2022-10-12T15:34:28.080Z,67.40
2022-10-12T15:36:57.156Z,67.30
2022-10-12T15:39:24.835Z,67.20
2022-10-12T15:41:52.385Z,66.40
2022-10-12T15:44:19.969Z,67.20
2022-10-12T15:46:47.706Z,67.10
2022-10-12T15:49:19.478Z,67.10
2022-10-12T15:51:48.332Z,67.10
2022-10-12T15:54:17.260Z,67.10
2022-10-12T15:56:44.808Z,67.10
2022-10-12T15:59:12.322Z,67.20
2022-10-12T16:01:39.986Z,67.30
2022-10-12T16:04:07.532Z,67.20
2022-10-12T16:06:35.116Z,67.10
2022-10-12T16:09:02.814Z,67.20
2022-10-12T16:11:31.870Z,67.30
2022-10-12T16:13:59.448Z,67.30
2022-10-12T16:16:26.994Z,67.40
2022-10-12T16:18:54.528Z,67.40
2022-10-12T16:21:22.042Z,67.40
2022-10-12T16:23:49.532Z,67.30
2022-10-12T16:26:16.992Z,67.30
2022-10-12T16:28:46.135Z,67.30
2022-10-12T16:31:15.306Z,67.30
2022-10-12T16:33:42.874Z,67.10
2022-10-12T16:36:11.498Z,67.10
2022-10-12T16:38:39.047Z,67.00
2022-10-12T16:41:10.673Z,66.90
2022-10-12T16:43:38.347Z,66.70
2022-10-12T16:46:07.615Z,66.80
2022-10-12T16:48:35.447Z,66.70
2022-10-12T16:51:07.317Z,66.70
2022-10-12T16:53:34.814Z,66.70
2022-10-12T16:56:02.345Z,66.80
2022-10-12T16:58:29.971Z,66.70
2022-10-12T17:00:57.588Z,66.70
2022-10-12T17:03:26.591Z,66.70
2022-10-12T17:05:59.728Z,66.70
2022-10-12T17:08:27.321Z,66.60
2022-10-12T17:10:54.921Z,66.70
2022-10-12T17:13:22.507Z,66.70
2022-10-12T17:15:50.099Z,66.60
2022-10-12T17:18:17.750Z,66.60
2022-10-12T17:20:49.399Z,66.60
2022-10-12T17:23:19.917Z,66.50
2022-10-12T17:25:47.475Z,66.40
2022-10-12T17:28:15.295Z,66.40
2022-10-12T17:30:42.954Z,66.40
2022-10-12T17:33:10.433Z,66.30
2022-10-12T17:35:39.999Z,66.20
2022-10-12T17:38:09.039Z,66.20
2022-10-12T17:40:38.794Z,66.10
2022-10-12T17:43:06.392Z,66.10
2022-10-12T17:45:33.901Z,66.10
2022-10-12T17:48:01.474Z,66.10
2022-10-12T17:50:28.957Z,65.90
2022-10-12T17:52:56.541Z,65.80
2022-10-12T17:55:47.091Z,65.70
2022-10-12T17:58:13.209Z,65.60
2022-10-12T18:00:40.570Z,65.70
2022-10-12T18:03:08.173Z,65.60
2022-10-12T18:05:35.718Z,65.60
2022-10-12T18:08:03.244Z,65.50
2022-10-12T18:10:32.173Z,65.50
2022-10-12T18:12:59.494Z,65.40
2022-10-12T18:15:28.841Z,65.40
2022-10-12T18:17:56.203Z,65.30
2022-10-12T18:20:24.172Z,65.30
2022-10-12T18:22:51.595Z,65.30
2022-10-12T18:25:25.945Z,65.30
2022-10-12T18:27:54.888Z,65.30
2022-10-12T18:30:22.255Z,65.20
2022-10-12T18:32:49.535Z,65.20
2022-10-12T18:35:17.000Z,65.10
2022-10-12T18:37:44.369Z,65.10
2022-10-12T18:40:12.265Z,65.10
2022-10-12T18:42:39.833Z,65.20
2022-10-12T18:45:09.432Z,65.30
2022-10-12T18:47:36.770Z,65.10
2022-10-12T18:50:04.300Z,65.10
2022-10-12T18:52:31.552Z,65.10
2022-10-12T18:54:58.916Z,65.10
2022-10-12T18:57:30.843Z,65.10
2022-10-12T18:59:58.960Z,65.10
2022-10-12T19:02:28.123Z,65.10
2022-10-12T19:04:55.966Z,65.10
2022-10-12T19:07:23.618Z,65.10
2022-10-12T19:09:51.169Z,65.10
2022-10-12T19:12:18.735Z,65.10
2022-10-12T19:14:46.331Z,65.10
2022-10-12T19:17:13.741Z,65.10
2022-10-12T19:19:42.591Z,65.10
2022-10-12T19:22:09.949Z,65.10
2022-10-12T19:24:37.354Z,65.10
2022-10-12T19:27:04.674Z,65.10
2022-10-12T19:29:31.964Z,65.10
2022-10-12T19:31:59.389Z,65.10
2022-10-12T19:34:27.007Z,65.10
2022-10-12T19:36:55.763Z,65.10
2022-10-12T19:39:24.260Z,65.00
2022-10-12T19:41:51.785Z,65.10
2022-10-12T19:44:19.135Z,65.10
2022-10-12T19:46:46.469Z,65.10
2022-10-12T19:49:14.391Z,65.10
2022-10-12T19:51:41.708Z,65.10
2022-10-12T19:54:12.383Z,65.10
2022-10-12T19:56:39.646Z,65.10
2022-10-12T19:59:06.915Z,65.20
2022-10-12T20:01:35.655Z,65.20
2022-10-12T20:04:27.624Z,65.20
2022-10-12T20:06:57.446Z,64.30
2022-10-12T20:09:36.096Z,65.30
2022-10-12T20:12:03.935Z,65.20
2022-10-12T20:14:31.294Z,65.10
2022-10-12T20:16:58.554Z,65.10
2022-10-12T20:19:26.057Z,65.10
2022-10-12T20:21:53.406Z,65.10
2022-10-12T20:24:20.898Z,65.10
2022-10-12T20:26:50.027Z,65.10
2022-10-12T20:29:17.580Z,65.10
2022-10-12T20:31:45.076Z,65.10
2022-10-12T20:34:12.644Z,65.10
2022-10-12T20:36:40.127Z,65.10
2022-10-12T20:39:07.654Z,65.10
2022-10-12T20:41:35.258Z,65.00
2022-10-12T20:44:04.339Z,65.00
2022-10-12T20:46:31.947Z,65.10
2022-10-12T20:49:00.715Z,65.00
2022-10-12T20:51:29.631Z,65.00
2022-10-12T20:53:57.227Z,65.00
2022-10-12T20:56:24.856Z,65.00
2022-10-12T20:58:53.547Z,65.00
2022-10-12T21:01:22.669Z,65.00
2022-10-12T21:03:50.256Z,64.80
2022-10-12T21:06:17.772Z,64.90
2022-10-12T21:08:48.874Z,64.90
2022-10-12T21:11:16.670Z,64.90
2022-10-12T21:13:44.289Z,64.80
2022-10-12T21:16:12.393Z,64.80
2022-10-12T21:18:41.726Z,64.80
2022-10-12T21:21:11.832Z,64.70
2022-10-12T21:23:39.376Z,64.70
2022-10-12T21:26:10.652Z,64.80
2022-10-12T21:28:38.184Z,64.70
2022-10-12T21:31:05.913Z,64.70
2022-10-12T21:33:34.295Z,64.70
2022-10-12T21:36:10.087Z,64.70
2022-10-12T21:38:37.668Z,64.50
2022-10-12T21:41:05.591Z,64.70
2022-10-12T21:43:33.072Z,64.70
2022-10-12T21:46:02.768Z,64.70
2022-10-12T21:48:30.467Z,64.70
2022-10-12T21:50:58.081Z,64.70
2022-10-12T21:53:27.053Z,64.70
2022-10-12T21:55:54.601Z,64.70
2022-10-12T21:58:22.078Z,64.70
2022-10-12T22:00:49.736Z,64.60
2022-10-12T22:03:17.321Z,64.70
2022-10-12T22:05:44.962Z,64.60
2022-10-12T22:08:12.518Z,64.70
2022-10-12T22:10:41.524Z,64.60
2022-10-12T22:13:09.106Z,64.60
2022-10-12T22:15:36.658Z,64.60
2022-10-12T22:18:04.360Z,64.60
2022-10-12T22:20:31.769Z,64.60
2022-10-12T22:22:59.350Z,64.60
2022-10-12T22:25:26.881Z,64.60
2022-10-12T22:27:55.901Z,64.70
2022-10-12T22:30:23.535Z,64.60
2022-10-12T22:32:51.054Z,64.70
2022-10-12T22:35:18.626Z,64.60
2022-10-12T22:37:46.188Z,64.60
2022-10-12T22:40:13.795Z,64.60
2022-10-12T22:42:41.310Z,64.70
2022-10-12T22:45:10.873Z,64.70
2022-10-12T22:47:38.429Z,64.70
2022-10-12T22:50:06.694Z,64.80
2022-10-12T22:52:34.343Z,64.70
2022-10-12T22:55:01.783Z,64.80
2022-10-12T22:57:30.633Z,64.80
2022-10-12T22:59:58.243Z,64.80
2022-10-12T23:02:27.259Z,64.80
2022-10-12T23:04:54.802Z,64.80
2022-10-12T23:07:22.278Z,64.80
2022-10-12T23:09:49.772Z,64.80
2022-10-12T23:12:17.547Z,64.80
2022-10-12T23:14:45.295Z,64.70
2022-10-12T23:17:12.798Z,64.70
2022-10-12T23:19:41.779Z,64.70
2022-10-12T23:22:09.319Z,64.70
2022-10-12T23:24:36.792Z,64.70
2022-10-12T23:27:04.423Z,64.70
2022-10-12T23:29:32.078Z,64.60
2022-10-12T23:31:59.582Z,64.60
2022-10-12T23:34:27.164Z,64.60
2022-10-12T23:36:56.271Z,64.60
2022-10-12T23:39:23.919Z,64.60
2022-10-12T23:41:51.525Z,64.60
2022-10-12T23:44:19.053Z,64.60
2022-10-12T23:46:46.576Z,64.60
2022-10-12T23:49:14.155Z,64.60
2022-10-12T23:51:41.723Z,64.60
2022-10-12T23:54:10.742Z,64.70
2022-10-12T23:56:38.249Z,64.60
2022-10-12T23:59:05.848Z,64.70
